sensor_id;sensor_type;location;lat;lon;timestamp;P1;durP1;ratioP1;P2;durP2;ratioP2
79204;SDS011;68632;47.512;19.104;2023-04-24T00:00:25;14.43;;;9.35;;
79204;SDS011;68632;47.512;19.104;2023-04-24T00:01:27;10.25;;;9.13;;
79204;SDS011;68632;47.512;19.104;2023-04-24T00:02:31;12.98;;;8.63;;
79204;SDS011;68632;47.512;19.104;2023-04-24T00:03:34;21.02;;;9.95;;
79204;SDS011;68632;47.512;19.104;2023-04-24T00:04:37;11.38;;;9.00;;
79204;SDS011;68632;47.512;19.104;2023-04-24T00:05:42;15.55;;;8.88;;
79204;SDS011;68632;47.512;19.104;2023-04-24T00:06:44;12.82;;;9.45;;
79204;SDS011;68632;47.512;19.104;2023-04-24T00:07:51;12.70;;;9.27;;
79204;SDS011;68632;47.512;19.104;2023-04-24T00:08:56;12.02;;;9.57;;
79204;SDS011;68632;47.512;19.104;2023-04-24T00:09:59;11.15;;;9.40;;
79204;SDS011;68632;47.512;19.104;2023-04-24T00:11:01;11.65;;;9.60;;
79204;SDS011;68632;47.512;19.104;2023-04-24T00:12:03;11.70;;;9.15;;
79204;SDS011;68632;47.512;19.104;2023-04-24T00:13:06;12.07;;;10.20;;
79204;SDS011;68632;47.512;19.104;2023-04-24T00:14:08;12.20;;;9.18;;
79204;SDS011;68632;47.512;19.104;2023-04-24T00:15:10;11.40;;;9.10;;
79204;SDS011;68632;47.512;19.104;2023-04-24T00:16:13;12.20;;;9.63;;
79204;SDS011;68632;47.512;19.104;2023-04-24T00:17:15;10.60;;;9.48;;
79204;SDS011;68632;47.512;19.104;2023-04-24T00:18:17;12.63;;;10.32;;
79204;SDS011;68632;47.512;19.104;2023-04-24T00:19:19;9.80;;;8.48;;
79204;SDS011;68632;47.512;19.104;2023-04-24T00:20:23;12.68;;;8.93;;
79204;SDS011;68632;47.512;19.104;2023-04-24T00:21:25;11.75;;;9.07;;
79204;SDS011;68632;47.512;19.104;2023-04-24T00:22:28;12.27;;;9.82;;
79204;SDS011;68632;47.512;19.104;2023-04-24T00:23:30;13.60;;;10.38;;
79204;SDS011;68632;47.512;19.104;2023-04-24T00:24:32;12.20;;;9.45;;
79204;SDS011;68632;47.512;19.104;2023-04-24T00:25:34;11.85;;;9.90;;
79204;SDS011;68632;47.512;19.104;2023-04-24T00:26:36;13.77;;;10.40;;
79204;SDS011;68632;47.512;19.104;2023-04-24T00:27:39;14.68;;;8.57;;
79204;SDS011;68632;47.512;19.104;2023-04-24T00:28:41;13.48;;;9.35;;
79204;SDS011;68632;47.512;19.104;2023-04-24T00:29:43;12.60;;;9.38;;
79204;SDS011;68632;47.512;19.104;2023-04-24T00:30:45;10.68;;;9.50;;
79204;SDS011;68632;47.512;19.104;2023-04-24T00:31:48;17.85;;;9.05;;
79204;SDS011;68632;47.512;19.104;2023-04-24T00:32:50;12.43;;;9.60;;
79204;SDS011;68632;47.512;19.104;2023-04-24T00:33:52;13.13;;;9.82;;
79204;SDS011;68632;47.512;19.104;2023-04-24T00:34:54;12.82;;;9.63;;
79204;SDS011;68632;47.512;19.104;2023-04-24T00:35:56;12.18;;;9.65;;
79204;SDS011;68632;47.512;19.104;2023-04-24T00:36:58;16.08;;;9.10;;
79204;SDS011;68632;47.512;19.104;2023-04-24T00:38:00;11.73;;;9.93;;
79204;SDS011;68632;47.512;19.104;2023-04-24T00:39:02;14.10;;;9.80;;
79204;SDS011;68632;47.512;19.104;2023-04-24T00:40:05;13.25;;;9.45;;
79204;SDS011;68632;47.512;19.104;2023-04-24T00:41:08;15.45;;;9.70;;
79204;SDS011;68632;47.512;19.104;2023-04-24T00:42:10;10.45;;;8.25;;
79204;SDS011;68632;47.512;19.104;2023-04-24T00:43:12;12.77;;;9.32;;
79204;SDS011;68632;47.512;19.104;2023-04-24T00:44:14;13.77;;;9.60;;
79204;SDS011;68632;47.512;19.104;2023-04-24T00:45:17;14.32;;;9.27;;
79204;SDS011;68632;47.512;19.104;2023-04-24T00:46:19;10.65;;;8.55;;
79204;SDS011;68632;47.512;19.104;2023-04-24T00:47:21;10.15;;;8.95;;
79204;SDS011;68632;47.512;19.104;2023-04-24T00:48:23;11.55;;;9.07;;
79204;SDS011;68632;47.512;19.104;2023-04-24T00:49:26;10.98;;;8.73;;
79204;SDS011;68632;47.512;19.104;2023-04-24T00:50:29;12.50;;;9.23;;
79204;SDS011;68632;47.512;19.104;2023-04-24T00:51:32;13.18;;;8.45;;
79204;SDS011;68632;47.512;19.104;2023-04-24T00:52:34;12.75;;;8.98;;
79204;SDS011;68632;47.512;19.104;2023-04-24T00:53:36;12.85;;;9.02;;
79204;SDS011;68632;47.512;19.104;2023-04-24T00:54:38;15.10;;;9.63;;
79204;SDS011;68632;47.512;19.104;2023-04-24T00:55:41;12.35;;;9.13;;
79204;SDS011;68632;47.512;19.104;2023-04-24T00:56:43;14.88;;;10.48;;
79204;SDS011;68632;47.512;19.104;2023-04-24T00:57:46;12.45;;;10.15;;
79204;SDS011;68632;47.512;19.104;2023-04-24T00:58:48;11.50;;;9.18;;
79204;SDS011;68632;47.512;19.104;2023-04-24T00:59:51;18.27;;;9.52;;
79204;SDS011;68632;47.512;19.104;2023-04-24T01:00:55;13.13;;;9.70;;
79204;SDS011;68632;47.512;19.104;2023-04-24T01:01:59;12.25;;;9.18;;
79204;SDS011;68632;47.512;19.104;2023-04-24T01:03:01;12.80;;;8.95;;
79204;SDS011;68632;47.512;19.104;2023-04-24T01:04:07;11.10;;;9.40;;
79204;SDS011;68632;47.512;19.104;2023-04-24T01:05:09;13.52;;;11.10;;
79204;SDS011;68632;47.512;19.104;2023-04-24T01:06:13;12.43;;;9.90;;
79204;SDS011;68632;47.512;19.104;2023-04-24T01:07:16;11.18;;;9.38;;
79204;SDS011;68632;47.512;19.104;2023-04-24T01:08:20;14.73;;;9.77;;
79204;SDS011;68632;47.512;19.104;2023-04-24T01:09:23;10.55;;;8.90;;
79204;SDS011;68632;47.512;19.104;2023-04-24T01:10:25;12.75;;;9.85;;
79204;SDS011;68632;47.512;19.104;2023-04-24T01:11:29;14.68;;;9.77;;
79204;SDS011;68632;47.512;19.104;2023-04-24T01:12:32;14.85;;;9.57;;
79204;SDS011;68632;47.512;19.104;2023-04-24T01:13:34;14.32;;;9.60;;
79204;SDS011;68632;47.512;19.104;2023-04-24T01:14:37;12.50;;;10.18;;
79204;SDS011;68632;47.512;19.104;2023-04-24T01:15:39;13.35;;;10.30;;
79204;SDS011;68632;47.512;19.104;2023-04-24T01:16:42;13.10;;;9.07;;
79204;SDS011;68632;47.512;19.104;2023-04-24T01:17:44;12.57;;;9.68;;
79204;SDS011;68632;47.512;19.104;2023-04-24T01:18:47;11.95;;;9.88;;
79204;SDS011;68632;47.512;19.104;2023-04-24T01:19:49;18.05;;;10.48;;
79204;SDS011;68632;47.512;19.104;2023-04-24T01:20:52;13.10;;;9.88;;
79204;SDS011;68632;47.512;19.104;2023-04-24T01:21:56;11.80;;;9.90;;
79204;SDS011;68632;47.512;19.104;2023-04-24T01:23:00;12.20;;;9.75;;
79204;SDS011;68632;47.512;19.104;2023-04-24T01:24:05;11.15;;;9.88;;
79204;SDS011;68632;47.512;19.104;2023-04-24T01:25:08;11.40;;;9.45;;
79204;SDS011;68632;47.512;19.104;2023-04-24T01:26:11;17.23;;;10.27;;
79204;SDS011;68632;47.512;19.104;2023-04-24T01:27:13;14.80;;;10.02;;
79204;SDS011;68632;47.512;19.104;2023-04-24T01:28:16;13.07;;;10.35;;
79204;SDS011;68632;47.512;19.104;2023-04-24T01:29:19;12.63;;;9.57;;
79204;SDS011;68632;47.512;19.104;2023-04-24T01:30:21;12.38;;;9.43;;
79204;SDS011;68632;47.512;19.104;2023-04-24T01:31:23;13.20;;;10.15;;
79204;SDS011;68632;47.512;19.104;2023-04-24T01:32:26;12.25;;;9.70;;
79204;SDS011;68632;47.512;19.104;2023-04-24T01:33:28;12.82;;;9.57;;
79204;SDS011;68632;47.512;19.104;2023-04-24T01:34:30;14.52;;;10.48;;
79204;SDS011;68632;47.512;19.104;2023-04-24T01:35:33;14.30;;;11.00;;
79204;SDS011;68632;47.512;19.104;2023-04-24T01:36:35;13.02;;;9.70;;
79204;SDS011;68632;47.512;19.104;2023-04-24T01:37:37;13.25;;;9.70;;
79204;SDS011;68632;47.512;19.104;2023-04-24T01:38:40;10.38;;;9.30;;
79204;SDS011;68632;47.512;19.104;2023-04-24T01:39:42;13.18;;;9.88;;
79204;SDS011;68632;47.512;19.104;2023-04-24T01:40:46;15.38;;;10.23;;
79204;SDS011;68632;47.512;19.104;2023-04-24T01:41:48;13.85;;;10.20;;
79204;SDS011;68632;47.512;19.104;2023-04-24T01:42:52;14.77;;;10.10;;
79204;SDS011;68632;47.512;19.104;2023-04-24T01:43:54;14.30;;;10.82;;
79204;SDS011;68632;47.512;19.104;2023-04-24T01:44:56;14.35;;;12.27;;
79204;SDS011;68632;47.512;19.104;2023-04-24T01:45:59;12.57;;;9.82;;
79204;SDS011;68632;47.512;19.104;2023-04-24T01:47:01;12.63;;;10.43;;
79204;SDS011;68632;47.512;19.104;2023-04-24T01:48:03;13.00;;;9.40;;
79204;SDS011;68632;47.512;19.104;2023-04-24T01:49:06;12.45;;;10.18;;
79204;SDS011;68632;47.512;19.104;2023-04-24T01:50:08;14.82;;;10.43;;
79204;SDS011;68632;47.512;19.104;2023-04-24T01:51:11;10.95;;;9.60;;
79204;SDS011;68632;47.512;19.104;2023-04-24T01:52:13;14.50;;;11.55;;
79204;SDS011;68632;47.512;19.104;2023-04-24T01:53:15;13.40;;;10.98;;
79204;SDS011;68632;47.512;19.104;2023-04-24T01:54:17;12.65;;;9.90;;
79204;SDS011;68632;47.512;19.104;2023-04-24T01:55:19;12.18;;;10.75;;
79204;SDS011;68632;47.512;19.104;2023-04-24T01:56:21;14.75;;;10.30;;
79204;SDS011;68632;47.512;19.104;2023-04-24T01:57:24;12.13;;;10.27;;
79204;SDS011;68632;47.512;19.104;2023-04-24T01:58:27;12.00;;;10.68;;
79204;SDS011;68632;47.512;19.104;2023-04-24T01:59:29;14.57;;;10.13;;
79204;SDS011;68632;47.512;19.104;2023-04-24T02:00:32;13.25;;;10.27;;
79204;SDS011;68632;47.512;19.104;2023-04-24T02:01:34;16.23;;;11.52;;
79204;SDS011;68632;47.512;19.104;2023-04-24T02:02:40;15.07;;;10.50;;
79204;SDS011;68632;47.512;19.104;2023-04-24T02:03:44;15.38;;;11.38;;
79204;SDS011;68632;47.512;19.104;2023-04-24T02:04:47;16.92;;;11.68;;
79204;SDS011;68632;47.512;19.104;2023-04-24T02:05:49;16.52;;;12.82;;
79204;SDS011;68632;47.512;19.104;2023-04-24T02:06:51;16.88;;;12.68;;
79204;SDS011;68632;47.512;19.104;2023-04-24T02:07:53;14.63;;;12.98;;
79204;SDS011;68632;47.512;19.104;2023-04-24T02:08:55;23.33;;;13.13;;
79204;SDS011;68632;47.512;19.104;2023-04-24T02:09:57;19.00;;;13.75;;
79204;SDS011;68632;47.512;19.104;2023-04-24T02:10:59;19.45;;;14.18;;
79204;SDS011;68632;47.512;19.104;2023-04-24T02:12:03;17.85;;;13.60;;
79204;SDS011;68632;47.512;19.104;2023-04-24T02:13:05;18.08;;;12.57;;
79204;SDS011;68632;47.512;19.104;2023-04-24T02:14:07;18.52;;;15.02;;
79204;SDS011;68632;47.512;19.104;2023-04-24T02:15:10;13.60;;;12.18;;
79204;SDS011;68632;47.512;19.104;2023-04-24T02:16:12;14.93;;;12.00;;
79204;SDS011;68632;47.512;19.104;2023-04-24T02:17:14;21.15;;;13.43;;
79204;SDS011;68632;47.512;19.104;2023-04-24T02:18:17;16.30;;;14.02;;
79204;SDS011;68632;47.512;19.104;2023-04-24T02:19:19;15.43;;;13.65;;
79204;SDS011;68632;47.512;19.104;2023-04-24T02:20:22;16.23;;;14.52;;
79204;SDS011;68632;47.512;19.104;2023-04-24T02:21:24;16.10;;;14.15;;
79204;SDS011;68632;47.512;19.104;2023-04-24T02:22:27;18.73;;;15.23;;
79204;SDS011;68632;47.512;19.104;2023-04-24T02:23:29;19.63;;;15.25;;
79204;SDS011;68632;47.512;19.104;2023-04-24T02:24:31;18.67;;;15.18;;
79204;SDS011;68632;47.512;19.104;2023-04-24T02:25:33;17.60;;;15.77;;
79204;SDS011;68632;47.512;19.104;2023-04-24T02:26:35;19.70;;;15.32;;
79204;SDS011;68632;47.512;19.104;2023-04-24T02:27:37;17.83;;;15.57;;
79204;SDS011;68632;47.512;19.104;2023-04-24T02:28:39;17.83;;;15.50;;
79204;SDS011;68632;47.512;19.104;2023-04-24T02:29:41;25.00;;;14.32;;
79204;SDS011;68632;47.512;19.104;2023-04-24T02:30:44;20.70;;;16.08;;
79204;SDS011;68632;47.512;19.104;2023-04-24T02:31:47;18.55;;;15.90;;
79204;SDS011;68632;47.512;19.104;2023-04-24T02:32:49;18.92;;;15.05;;
79204;SDS011;68632;47.512;19.104;2023-04-24T02:33:51;23.90;;;17.02;;
79204;SDS011;68632;47.512;19.104;2023-04-24T02:34:53;18.80;;;15.95;;
79204;SDS011;68632;47.512;19.104;2023-04-24T02:35:55;18.08;;;14.18;;
79204;SDS011;68632;47.512;19.104;2023-04-24T02:36:57;21.15;;;17.33;;
79204;SDS011;68632;47.512;19.104;2023-04-24T02:37:59;18.08;;;16.27;;
79204;SDS011;68632;47.512;19.104;2023-04-24T02:39:01;20.52;;;16.58;;
79204;SDS011;68632;47.512;19.104;2023-04-24T02:40:05;19.48;;;15.40;;
79204;SDS011;68632;47.512;19.104;2023-04-24T02:41:08;17.63;;;12.95;;
79204;SDS011;68632;47.512;19.104;2023-04-24T02:42:10;16.08;;;12.38;;
79204;SDS011;68632;47.512;19.104;2023-04-24T02:43:12;18.08;;;14.70;;
79204;SDS011;68632;47.512;19.104;2023-04-24T02:44:14;21.33;;;15.45;;
79204;SDS011;68632;47.512;19.104;2023-04-24T02:45:16;16.52;;;14.82;;
79204;SDS011;68632;47.512;19.104;2023-04-24T02:46:19;18.25;;;16.40;;
79204;SDS011;68632;47.512;19.104;2023-04-24T02:47:21;18.65;;;15.05;;
79204;SDS011;68632;47.512;19.104;2023-04-24T02:48:23;16.48;;;14.50;;
79204;SDS011;68632;47.512;19.104;2023-04-24T02:49:25;13.98;;;12.50;;
79204;SDS011;68632;47.512;19.104;2023-04-24T02:50:27;18.52;;;12.40;;
79204;SDS011;68632;47.512;19.104;2023-04-24T02:51:30;14.27;;;12.80;;
79204;SDS011;68632;47.512;19.104;2023-04-24T02:52:32;17.10;;;14.35;;
79204;SDS011;68632;47.512;19.104;2023-04-24T02:53:34;17.33;;;14.30;;
79204;SDS011;68632;47.512;19.104;2023-04-24T02:54:36;18.08;;;15.50;;
79204;SDS011;68632;47.512;19.104;2023-04-24T02:55:39;16.85;;;15.02;;
79204;SDS011;68632;47.512;19.104;2023-04-24T02:56:41;16.73;;;13.93;;
79204;SDS011;68632;47.512;19.104;2023-04-24T02:57:43;17.80;;;15.85;;
79204;SDS011;68632;47.512;19.104;2023-04-24T02:58:45;16.95;;;14.20;;
79204;SDS011;68632;47.512;19.104;2023-04-24T02:59:47;17.92;;;14.18;;
79204;SDS011;68632;47.512;19.104;2023-04-24T03:00:52;16.20;;;14.48;;
79204;SDS011;68632;47.512;19.104;2023-04-24T03:01:56;15.93;;;14.25;;
79204;SDS011;68632;47.512;19.104;2023-04-24T03:02:58;20.02;;;15.10;;
79204;SDS011;68632;47.512;19.104;2023-04-24T03:04:00;19.58;;;15.75;;
79204;SDS011;68632;47.512;19.104;2023-04-24T03:05:02;19.23;;;16.00;;
79204;SDS011;68632;47.512;19.104;2023-04-24T03:06:06;19.70;;;16.52;;
79204;SDS011;68632;47.512;19.104;2023-04-24T03:07:09;19.20;;;17.20;;
79204;SDS011;68632;47.512;19.104;2023-04-24T03:08:11;21.33;;;16.48;;
79204;SDS011;68632;47.512;19.104;2023-04-24T03:09:13;18.20;;;16.35;;
79204;SDS011;68632;47.512;19.104;2023-04-24T03:10:16;17.38;;;14.93;;
79204;SDS011;68632;47.512;19.104;2023-04-24T03:11:18;19.88;;;16.23;;
79204;SDS011;68632;47.512;19.104;2023-04-24T03:12:20;19.10;;;16.25;;
79204;SDS011;68632;47.512;19.104;2023-04-24T03:13:22;17.35;;;14.77;;
79204;SDS011;68632;47.512;19.104;2023-04-24T03:14:24;17.40;;;15.45;;
79204;SDS011;68632;47.512;19.104;2023-04-24T03:15:26;22.55;;;16.98;;
79204;SDS011;68632;47.512;19.104;2023-04-24T03:16:28;19.40;;;16.52;;
79204;SDS011;68632;47.512;19.104;2023-04-24T03:17:30;19.35;;;17.38;;
79204;SDS011;68632;47.512;19.104;2023-04-24T03:18:33;19.88;;;17.77;;
79204;SDS011;68632;47.512;19.104;2023-04-24T03:19:35;19.42;;;17.35;;
79204;SDS011;68632;47.512;19.104;2023-04-24T03:20:38;21.25;;;19.15;;
79204;SDS011;68632;47.512;19.104;2023-04-24T03:21:40;22.77;;;17.95;;
79204;SDS011;68632;47.512;19.104;2023-04-24T03:22:42;22.77;;;18.13;;
79204;SDS011;68632;47.512;19.104;2023-04-24T03:23:44;19.17;;;17.10;;
79204;SDS011;68632;47.512;19.104;2023-04-24T03:24:46;20.90;;;18.42;;
79204;SDS011;68632;47.512;19.104;2023-04-24T03:25:49;20.80;;;18.10;;
79204;SDS011;68632;47.512;19.104;2023-04-24T03:26:51;21.05;;;18.85;;
79204;SDS011;68632;47.512;19.104;2023-04-24T03:27:53;20.23;;;17.75;;
79204;SDS011;68632;47.512;19.104;2023-04-24T03:28:56;19.73;;;17.75;;
79204;SDS011;68632;47.512;19.104;2023-04-24T03:29:58;20.95;;;17.65;;
79204;SDS011;68632;47.512;19.104;2023-04-24T03:31:00;20.50;;;17.30;;
79204;SDS011;68632;47.512;19.104;2023-04-24T03:32:03;17.45;;;15.77;;
79204;SDS011;68632;47.512;19.104;2023-04-24T03:33:05;17.15;;;15.10;;
79204;SDS011;68632;47.512;19.104;2023-04-24T03:34:07;19.80;;;17.67;;
79204;SDS011;68632;47.512;19.104;2023-04-24T03:35:09;19.30;;;16.52;;
79204;SDS011;68632;47.512;19.104;2023-04-24T03:36:11;21.15;;;18.27;;
79204;SDS011;68632;47.512;19.104;2023-04-24T03:37:14;19.75;;;17.65;;
79204;SDS011;68632;47.512;19.104;2023-04-24T03:38:16;21.80;;;17.95;;
79204;SDS011;68632;47.512;19.104;2023-04-24T03:39:18;21.65;;;18.25;;
79204;SDS011;68632;47.512;19.104;2023-04-24T03:40:21;20.25;;;18.13;;
79204;SDS011;68632;47.512;19.104;2023-04-24T03:41:23;20.10;;;17.85;;
79204;SDS011;68632;47.512;19.104;2023-04-24T03:42:25;20.38;;;17.40;;
79204;SDS011;68632;47.512;19.104;2023-04-24T03:43:27;19.48;;;16.48;;
79204;SDS011;68632;47.512;19.104;2023-04-24T03:44:29;19.58;;;17.67;;
79204;SDS011;68632;47.512;19.104;2023-04-24T03:45:31;23.02;;;19.08;;
79204;SDS011;68632;47.512;19.104;2023-04-24T03:46:33;20.73;;;17.60;;
79204;SDS011;68632;47.512;19.104;2023-04-24T03:47:35;20.33;;;18.15;;
79204;SDS011;68632;47.512;19.104;2023-04-24T03:48:38;19.27;;;17.23;;
79204;SDS011;68632;47.512;19.104;2023-04-24T03:49:40;21.40;;;18.00;;
79204;SDS011;68632;47.512;19.104;2023-04-24T03:50:42;19.88;;;17.73;;
79204;SDS011;68632;47.512;19.104;2023-04-24T03:51:44;21.00;;;18.73;;
79204;SDS011;68632;47.512;19.104;2023-04-24T03:52:46;19.25;;;17.30;;
79204;SDS011;68632;47.512;19.104;2023-04-24T03:53:49;19.83;;;17.52;;
79204;SDS011;68632;47.512;19.104;2023-04-24T03:54:51;20.83;;;18.70;;
79204;SDS011;68632;47.512;19.104;2023-04-24T03:55:53;20.58;;;18.35;;
79204;SDS011;68632;47.512;19.104;2023-04-24T03:56:55;18.20;;;16.15;;
79204;SDS011;68632;47.512;19.104;2023-04-24T03:57:58;21.77;;;15.82;;
79204;SDS011;68632;47.512;19.104;2023-04-24T03:59:00;17.65;;;15.75;;
79204;SDS011;68632;47.512;19.104;2023-04-24T04:00:02;18.77;;;16.98;;
79204;SDS011;68632;47.512;19.104;2023-04-24T04:01:06;17.52;;;15.77;;
79204;SDS011;68632;47.512;19.104;2023-04-24T04:02:09;17.80;;;16.00;;
79204;SDS011;68632;47.512;19.104;2023-04-24T04:03:11;19.55;;;15.73;;
79204;SDS011;68632;47.512;19.104;2023-04-24T04:04:15;21.88;;;16.80;;
79204;SDS011;68632;47.512;19.104;2023-04-24T04:05:17;19.10;;;16.58;;
79204;SDS011;68632;47.512;19.104;2023-04-24T04:06:19;21.65;;;15.95;;
79204;SDS011;68632;47.512;19.104;2023-04-24T04:07:23;19.10;;;17.13;;
79204;SDS011;68632;47.512;19.104;2023-04-24T04:08:25;19.55;;;17.55;;
79204;SDS011;68632;47.512;19.104;2023-04-24T04:09:27;19.17;;;17.30;;
79204;SDS011;68632;47.512;19.104;2023-04-24T04:10:30;18.23;;;16.33;;
79204;SDS011;68632;47.512;19.104;2023-04-24T04:11:32;19.67;;;16.00;;
79204;SDS011;68632;47.512;19.104;2023-04-24T04:12:34;20.05;;;17.45;;
79204;SDS011;68632;47.512;19.104;2023-04-24T04:13:36;19.65;;;17.20;;
79204;SDS011;68632;47.512;19.104;2023-04-24T04:14:39;19.77;;;17.67;;
79204;SDS011;68632;47.512;19.104;2023-04-24T04:15:41;20.92;;;18.70;;
79204;SDS011;68632;47.512;19.104;2023-04-24T04:16:43;21.33;;;16.55;;
79204;SDS011;68632;47.512;19.104;2023-04-24T04:17:46;20.60;;;18.13;;
79204;SDS011;68632;47.512;19.104;2023-04-24T04:18:48;22.60;;;17.52;;
79204;SDS011;68632;47.512;19.104;2023-04-24T04:19:50;21.15;;;18.85;;
79204;SDS011;68632;47.512;19.104;2023-04-24T04:20:52;18.48;;;16.38;;
79204;SDS011;68632;47.512;19.104;2023-04-24T04:21:54;21.05;;;17.95;;
79204;SDS011;68632;47.512;19.104;2023-04-24T04:22:58;19.10;;;17.08;;
79204;SDS011;68632;47.512;19.104;2023-04-24T04:24:00;20.00;;;17.40;;
79204;SDS011;68632;47.512;19.104;2023-04-24T04:25:02;20.92;;;17.90;;
79204;SDS011;68632;47.512;19.104;2023-04-24T04:26:05;21.30;;;17.60;;
79204;SDS011;68632;47.512;19.104;2023-04-24T04:27:07;20.65;;;18.55;;
79204;SDS011;68632;47.512;19.104;2023-04-24T04:28:10;21.30;;;18.38;;
79204;SDS011;68632;47.512;19.104;2023-04-24T04:29:12;22.05;;;17.98;;
79204;SDS011;68632;47.512;19.104;2023-04-24T04:30:17;21.25;;;18.15;;
79204;SDS011;68632;47.512;19.104;2023-04-24T04:31:20;22.38;;;16.95;;
79204;SDS011;68632;47.512;19.104;2023-04-24T04:32:22;19.00;;;17.05;;
79204;SDS011;68632;47.512;19.104;2023-04-24T04:33:24;21.75;;;16.70;;
79204;SDS011;68632;47.512;19.104;2023-04-24T04:34:27;20.00;;;15.70;;
79204;SDS011;68632;47.512;19.104;2023-04-24T04:35:29;18.20;;;15.88;;
79204;SDS011;68632;47.512;19.104;2023-04-24T04:36:31;19.77;;;16.80;;
79204;SDS011;68632;47.512;19.104;2023-04-24T04:37:34;20.08;;;17.90;;
79204;SDS011;68632;47.512;19.104;2023-04-24T04:38:37;21.80;;;15.98;;
79204;SDS011;68632;47.512;19.104;2023-04-24T04:39:39;17.58;;;15.30;;
79204;SDS011;68632;47.512;19.104;2023-04-24T04:40:42;19.83;;;16.13;;
79204;SDS011;68632;47.512;19.104;2023-04-24T04:41:44;17.05;;;15.02;;
79204;SDS011;68632;47.512;19.104;2023-04-24T04:42:50;19.42;;;15.35;;
79204;SDS011;68632;47.512;19.104;2023-04-24T04:43:54;18.08;;;16.00;;
79204;SDS011;68632;47.512;19.104;2023-04-24T04:45:00;17.17;;;14.77;;
79204;SDS011;68632;47.512;19.104;2023-04-24T04:46:02;17.60;;;15.73;;
79204;SDS011;68632;47.512;19.104;2023-04-24T04:47:05;19.25;;;15.73;;
79204;SDS011;68632;47.512;19.104;2023-04-24T04:48:07;18.58;;;15.95;;
79204;SDS011;68632;47.512;19.104;2023-04-24T04:49:10;17.83;;;15.95;;
79204;SDS011;68632;47.512;19.104;2023-04-24T04:50:12;17.42;;;15.60;;
79204;SDS011;68632;47.512;19.104;2023-04-24T04:51:15;17.70;;;14.60;;
79204;SDS011;68632;47.512;19.104;2023-04-24T04:52:18;18.15;;;16.13;;
79204;SDS011;68632;47.512;19.104;2023-04-24T04:53:20;17.45;;;15.65;;
79204;SDS011;68632;47.512;19.104;2023-04-24T04:54:23;18.58;;;16.77;;
79204;SDS011;68632;47.512;19.104;2023-04-24T04:55:25;18.00;;;16.20;;
79204;SDS011;68632;47.512;19.104;2023-04-24T04:56:27;19.38;;;16.08;;
79204;SDS011;68632;47.512;19.104;2023-04-24T04:57:29;20.20;;;16.13;;
79204;SDS011;68632;47.512;19.104;2023-04-24T04:58:32;18.77;;;15.27;;
79204;SDS011;68632;47.512;19.104;2023-04-24T04:59:34;17.73;;;15.82;;
79204;SDS011;68632;47.512;19.104;2023-04-24T05:00:36;18.60;;;16.25;;
79204;SDS011;68632;47.512;19.104;2023-04-24T05:01:39;18.23;;;15.68;;
79204;SDS011;68632;47.512;19.104;2023-04-24T05:02:42;16.80;;;14.88;;
79204;SDS011;68632;47.512;19.104;2023-04-24T05:03:44;17.25;;;14.65;;
79204;SDS011;68632;47.512;19.104;2023-04-24T05:04:47;22.42;;;15.82;;
79204;SDS011;68632;47.512;19.104;2023-04-24T05:05:49;20.30;;;15.88;;
79204;SDS011;68632;47.512;19.104;2023-04-24T05:06:52;17.17;;;15.35;;
79204;SDS011;68632;47.512;19.104;2023-04-24T05:07:54;16.17;;;14.48;;
79204;SDS011;68632;47.512;19.104;2023-04-24T05:08:56;19.83;;;16.08;;
79204;SDS011;68632;47.512;19.104;2023-04-24T05:09:59;18.08;;;15.65;;
79204;SDS011;68632;47.512;19.104;2023-04-24T05:11:02;16.40;;;14.70;;
79204;SDS011;68632;47.512;19.104;2023-04-24T05:12:04;16.67;;;14.98;;
79204;SDS011;68632;47.512;19.104;2023-04-24T05:13:06;17.92;;;15.75;;
79204;SDS011;68632;47.512;19.104;2023-04-24T05:14:09;16.73;;;14.93;;
79204;SDS011;68632;47.512;19.104;2023-04-24T05:15:11;20.75;;;15.32;;
79204;SDS011;68632;47.512;19.104;2023-04-24T05:16:13;16.88;;;15.05;;
79204;SDS011;68632;47.512;19.104;2023-04-24T05:17:15;19.38;;;15.18;;
79204;SDS011;68632;47.512;19.104;2023-04-24T05:18:18;17.30;;;14.90;;
79204;SDS011;68632;47.512;19.104;2023-04-24T05:19:20;17.05;;;15.23;;
79204;SDS011;68632;47.512;19.104;2023-04-24T05:20:22;16.42;;;14.68;;
79204;SDS011;68632;47.512;19.104;2023-04-24T05:21:24;17.30;;;14.77;;
79204;SDS011;68632;47.512;19.104;2023-04-24T05:22:27;18.63;;;14.52;;
79204;SDS011;68632;47.512;19.104;2023-04-24T05:23:29;17.73;;;15.70;;
79204;SDS011;68632;47.512;19.104;2023-04-24T05:24:31;20.67;;;16.35;;
79204;SDS011;68632;47.512;19.104;2023-04-24T05:25:33;17.27;;;15.13;;
79204;SDS011;68632;47.512;19.104;2023-04-24T05:26:37;16.23;;;14.55;;
79204;SDS011;68632;47.512;19.104;2023-04-24T05:27:39;19.75;;;15.65;;
79204;SDS011;68632;47.512;19.104;2023-04-24T05:28:42;19.77;;;14.32;;
79204;SDS011;68632;47.512;19.104;2023-04-24T05:29:44;16.40;;;13.07;;
79204;SDS011;68632;47.512;19.104;2023-04-24T05:30:46;16.10;;;14.40;;
79204;SDS011;68632;47.512;19.104;2023-04-24T05:31:48;22.02;;;15.07;;
79204;SDS011;68632;47.512;19.104;2023-04-24T05:32:51;16.85;;;13.52;;
79204;SDS011;68632;47.512;19.104;2023-04-24T05:33:53;15.73;;;13.73;;
79204;SDS011;68632;47.512;19.104;2023-04-24T05:34:55;17.60;;;12.73;;
79204;SDS011;68632;47.512;19.104;2023-04-24T05:35:57;16.15;;;13.55;;
79204;SDS011;68632;47.512;19.104;2023-04-24T05:36:59;15.50;;;13.77;;
79204;SDS011;68632;47.512;19.104;2023-04-24T05:38:02;16.75;;;13.32;;
79204;SDS011;68632;47.512;19.104;2023-04-24T05:39:04;16.05;;;14.40;;
79204;SDS011;68632;47.512;19.104;2023-04-24T05:40:09;18.08;;;14.82;;
79204;SDS011;68632;47.512;19.104;2023-04-24T05:41:12;16.02;;;14.27;;
79204;SDS011;68632;47.512;19.104;2023-04-24T05:42:14;17.52;;;14.57;;
79204;SDS011;68632;47.512;19.104;2023-04-24T05:43:16;15.15;;;13.55;;
79204;SDS011;68632;47.512;19.104;2023-04-24T05:44:18;15.38;;;12.68;;
79204;SDS011;68632;47.512;19.104;2023-04-24T05:45:20;15.00;;;13.18;;
79204;SDS011;68632;47.512;19.104;2023-04-24T05:46:22;14.73;;;12.52;;
79204;SDS011;68632;47.512;19.104;2023-04-24T05:47:25;14.75;;;11.30;;
79204;SDS011;68632;47.512;19.104;2023-04-24T05:48:28;20.00;;;13.32;;
79204;SDS011;68632;47.512;19.104;2023-04-24T05:49:30;16.70;;;13.70;;
79204;SDS011;68632;47.512;19.104;2023-04-24T05:50:32;19.27;;;13.70;;
79204;SDS011;68632;47.512;19.104;2023-04-24T05:51:37;16.40;;;13.48;;
79204;SDS011;68632;47.512;19.104;2023-04-24T05:52:41;19.17;;;13.93;;
79204;SDS011;68632;47.512;19.104;2023-04-24T05:53:43;18.27;;;13.75;;
79204;SDS011;68632;47.512;19.104;2023-04-24T05:54:45;18.33;;;13.65;;
79204;SDS011;68632;47.512;19.104;2023-04-24T05:55:47;18.38;;;13.95;;
79204;SDS011;68632;47.512;19.104;2023-04-24T05:56:49;16.80;;;14.02;;
79204;SDS011;68632;47.512;19.104;2023-04-24T05:57:52;16.83;;;15.02;;
79204;SDS011;68632;47.512;19.104;2023-04-24T05:58:54;17.23;;;13.75;;
79204;SDS011;68632;47.512;19.104;2023-04-24T05:59:57;15.95;;;12.57;;
79204;SDS011;68632;47.512;19.104;2023-04-24T06:00:59;15.85;;;13.30;;